createdAt,value
2018-03-16T00:00:38.222Z,23.3
2018-03-16T00:01:27.639Z,23.3
2018-03-16T00:02:18.126Z,23.2
2018-03-16T00:03:08.269Z,23.2
2018-03-16T00:03:58.557Z,23.2
2018-03-16T00:04:47.973Z,23.2
2018-03-16T00:05:39.522Z,23.2
2018-03-16T00:06:29.292Z,23.1
2018-03-16T00:07:18.766Z,23.1
2018-03-16T00:08:08.827Z,23.1
2018-03-16T00:08:58.861Z,23.2
2018-03-16T00:09:49.502Z,23.1
2018-03-16T00:10:39.236Z,23.2
2018-03-16T00:11:29.479Z,23.2
2018-03-16T00:12:19.399Z,23.3
2018-03-16T00:13:08.606Z,23.2
2018-03-16T00:13:58.300Z,23.3
2018-03-16T00:14:48.454Z,23.3
2018-03-16T00:15:39.279Z,23.2
2018-03-16T00:16:28.762Z,23.3
2018-03-16T00:17:19.272Z,23.3
2018-03-16T00:18:08.869Z,23.3
2018-03-16T00:18:59.316Z,23.3
2018-03-16T00:19:49.766Z,23.3
2018-03-16T00:20:40.056Z,23.3
2018-03-16T00:21:28.894Z,23.4
2018-03-16T00:22:19.981Z,23.4
2018-03-16T00:23:08.163Z,23.3
2018-03-16T00:23:59.291Z,23.3
2018-03-16T00:24:48.845Z,23.3
2018-03-16T00:25:40.209Z,23.3
2018-03-16T00:26:29.676Z,23.3
2018-03-16T00:27:20.340Z,23.3
2018-03-16T00:28:09.773Z,23.3
2018-03-16T00:29:00.718Z,23.2
2018-03-16T00:29:50.691Z,23.2
2018-03-16T00:30:40.832Z,23.2
2018-03-16T00:31:30.005Z,23.2
2018-03-16T00:32:20.236Z,23.2
2018-03-16T00:33:10.595Z,23.3
2018-03-16T00:34:00.801Z,23.3
2018-03-16T00:34:50.775Z,23.3
2018-03-16T00:35:40.903Z,23.3
2018-03-16T00:36:30.578Z,23.3
2018-03-16T00:37:21.005Z,23.3
2018-03-16T00:38:12.135Z,23.3
2018-03-16T00:39:01.255Z,23.3
2018-03-16T00:39:51.260Z,23.3
2018-03-16T00:40:41.092Z,23.3
2018-03-16T00:41:30.771Z,23.3
2018-03-16T00:42:21.308Z,23.3
2018-03-16T00:43:10.762Z,23.4
2018-03-16T00:44:01.209Z,23.4
2018-03-16T00:44:51.746Z,23.4
2018-03-16T00:45:41.129Z,23.4
2018-03-16T00:46:30.934Z,23.4
2018-03-16T00:47:22.205Z,23.3
2018-03-16T00:48:11.007Z,23.4
2018-03-16T00:49:01.003Z,23.3
2018-03-16T00:49:51.991Z,23.3
2018-03-16T00:50:41.561Z,23.3
2018-03-16T00:51:31.270Z,23.3
2018-03-16T00:52:22.159Z,23.3
2018-03-16T00:53:11.784Z,23.3
2018-03-16T00:54:02.435Z,23.3
2018-03-16T00:54:52.853Z,23.3
2018-03-16T00:55:42.076Z,23.3
2018-03-16T00:56:32.304Z,23.3
2018-03-16T00:57:22.660Z,23.4
2018-03-16T00:58:10.998Z,23.4
2018-03-16T00:59:02.645Z,23.4
2018-03-16T00:59:52.174Z,23.4
2018-03-16T01:00:42.328Z,23.4
2018-03-16T01:01:31.606Z,23.4
2018-03-16T01:02:22.148Z,23.4
2018-03-16T01:03:12.686Z,23.4
2018-03-16T01:04:01.975Z,23.4
2018-03-16T01:04:52.124Z,23.4
2018-03-16T01:05:42.304Z,23.4
2018-03-16T01:06:33.403Z,23.4
2018-03-16T01:07:22.417Z,23.4
2018-03-16T01:08:12.391Z,23.4
2018-03-16T01:09:03.265Z,23.4
2018-03-16T01:09:53.423Z,23.4
2018-03-16T01:10:42.343Z,23.4
2018-03-16T01:11:34.176Z,23.3
2018-03-16T01:12:23.005Z,23.3
2018-03-16T01:13:13.318Z,23.3
2018-03-16T01:14:02.960Z,23.3
2018-03-16T01:14:52.661Z,23.3
2018-03-16T01:15:43.766Z,23.3
2018-03-16T01:16:33.379Z,23.3
2018-03-16T01:17:24.238Z,23.3
2018-03-16T01:18:14.451Z,23.4
2018-03-16T01:19:03.679Z,23.4
2018-03-16T01:19:53.334Z,23.4
2018-03-16T01:20:43.572Z,23.4
2018-03-16T01:21:33.418Z,23.4
2018-03-16T01:22:24.177Z,23.4
2018-03-16T01:23:14.032Z,23.4
2018-03-16T01:24:04.104Z,23.4
2018-03-16T01:24:54.064Z,23.4
2018-03-16T01:25:43.282Z,23.4
2018-03-16T01:26:34.595Z,23.4
2018-03-16T01:27:23.951Z,23.4
2018-03-16T01:28:14.634Z,23.4
2018-03-16T01:29:04.444Z,23.4
2018-03-16T01:29:54.680Z,23.4
2018-03-16T01:30:44.480Z,23.4
2018-03-16T01:31:34.889Z,23.4
2018-03-16T01:32:24.699Z,23.4
2018-03-16T01:33:14.757Z,23.4
2018-03-16T01:34:03.849Z,23.3
2018-03-16T01:34:54.574Z,23.4
2018-03-16T01:35:44.749Z,23.3
2018-03-16T01:36:34.587Z,23.3
2018-03-16T01:37:25.721Z,23.3
2018-03-16T01:38:14.668Z,23.3
2018-03-16T01:39:05.866Z,23.3
2018-03-16T01:39:55.791Z,23.4
2018-03-16T01:40:45.381Z,23.4
2018-03-16T01:41:34.982Z,23.4
2018-03-16T01:42:26.280Z,23.4
2018-03-16T01:43:15.766Z,23.4
2018-03-16T01:44:05.065Z,23.4
2018-03-16T01:44:56.065Z,23.4
2018-03-16T01:45:45.113Z,23.4
2018-03-16T01:46:36.481Z,23.4
2018-03-16T01:47:25.968Z,23.4
2018-03-16T01:48:14.725Z,23.4
2018-03-16T01:49:06.741Z,23.4
2018-03-16T01:49:55.285Z,23.5
2018-03-16T01:50:46.201Z,23.4
2018-03-16T01:51:34.932Z,23.4
2018-03-16T01:52:26.648Z,23.4
2018-03-16T01:53:16.403Z,23.4
2018-03-16T01:54:06.190Z,23.4
2018-03-16T01:54:55.968Z,23.4
2018-03-16T01:55:47.165Z,23.4
2018-03-16T01:56:35.933Z,23.4
2018-03-16T01:57:26.077Z,23.4
2018-03-16T01:58:16.018Z,23.4
2018-03-16T01:59:07.701Z,23.3
2018-03-16T01:59:56.301Z,23.3
2018-03-16T02:00:46.825Z,23.4
2018-03-16T02:01:37.385Z,23.4
2018-03-16T02:02:27.322Z,23.4
2018-03-16T02:03:16.327Z,23.4
2018-03-16T02:04:07.533Z,23.4
2018-03-16T02:04:56.047Z,23.4
2018-03-16T02:05:47.180Z,23.4
2018-03-16T02:06:37.044Z,23.4
2018-03-16T02:07:27.707Z,23.4
2018-03-16T02:08:18.319Z,23.4
2018-03-16T02:09:07.617Z,23.5
2018-03-16T02:09:58.272Z,23.5
2018-03-16T02:10:47.467Z,23.6
2018-03-16T02:11:37.516Z,23.6
2018-03-16T02:12:27.769Z,23.6
2018-03-16T02:13:17.441Z,23.6
2018-03-16T02:14:07.527Z,23.5
2018-03-16T02:14:57.454Z,23.5
2018-03-16T02:15:47.998Z,23.5
2018-03-16T02:16:37.376Z,23.4
2018-03-16T02:17:28.329Z,23.5
2018-03-16T02:18:18.290Z,23.4
2018-03-16T02:19:08.053Z,23.4
2018-03-16T02:19:58.314Z,23.4
2018-03-16T02:20:48.726Z,23.4
2018-03-16T02:21:38.916Z,23.4
2018-03-16T02:22:28.073Z,23.4
2018-03-16T02:23:19.219Z,23.4
2018-03-16T02:24:08.900Z,23.4
2018-03-16T02:24:59.443Z,23.5
2018-03-16T02:25:49.223Z,23.5
2018-03-16T02:26:38.983Z,23.5
2018-03-16T02:27:28.378Z,23.5
2018-03-16T02:28:19.425Z,23.5
2018-03-16T02:29:08.986Z,23.5
2018-03-16T02:29:58.843Z,23.6
2018-03-16T02:30:48.400Z,23.6
2018-03-16T02:31:38.624Z,23.6
2018-03-16T02:32:29.495Z,23.6
2018-03-16T02:33:19.289Z,23.6
2018-03-16T02:34:08.559Z,23.6
2018-03-16T02:34:59.398Z,23.6
2018-03-16T02:35:48.972Z,23.6
2018-03-16T02:36:40.119Z,23.5
2018-03-16T02:37:29.718Z,23.5
2018-03-16T02:38:19.898Z,23.5
2018-03-16T02:39:09.395Z,23.5
2018-03-16T02:40:00.333Z,23.5
2018-03-16T02:40:50.894Z,23.4
2018-03-16T02:41:41.063Z,23.4
2018-03-16T02:42:30.039Z,23.4
2018-03-16T02:43:20.298Z,23.4
2018-03-16T02:44:09.233Z,23.4
2018-03-16T02:45:00.621Z,23.4
2018-03-16T02:45:50.589Z,23.5
2018-03-16T02:46:41.032Z,23.5
2018-03-16T02:47:30.752Z,23.5
2018-03-16T02:48:20.480Z,23.5
2018-03-16T02:49:10.318Z,23.5
2018-03-16T02:50:00.502Z,23.5
2018-03-16T02:50:51.723Z,23.6
2018-03-16T02:51:40.433Z,23.6
2018-03-16T02:52:31.321Z,23.6
2018-03-16T02:53:20.323Z,23.6
2018-03-16T02:54:10.688Z,23.6
2018-03-16T02:55:00.128Z,23.6
2018-03-16T02:55:51.014Z,23.6
2018-03-16T02:56:41.256Z,23.6
2018-03-16T02:57:30.813Z,23.5
2018-03-16T02:58:20.807Z,23.6
2018-03-16T02:59:10.856Z,23.5
2018-03-16T03:00:01.125Z,23.6
2018-03-16T03:00:51.529Z,23.5
2018-03-16T03:01:41.395Z,23.4
2018-03-16T03:02:31.388Z,23.4
2018-03-16T03:03:21.855Z,23.4
2018-03-16T03:04:12.884Z,23.4
2018-03-16T03:05:02.401Z,23.4
2018-03-16T03:05:50.851Z,23.4
2018-03-16T03:06:41.064Z,23.5
2018-03-16T03:07:32.220Z,23.5
2018-03-16T03:08:21.591Z,23.5
2018-03-16T03:09:12.137Z,23.5
2018-03-16T03:10:01.750Z,23.5
2018-03-16T03:10:51.851Z,23.6
2018-03-16T03:11:41.954Z,23.6
2018-03-16T03:12:32.322Z,23.6
2018-03-16T03:13:22.458Z,23.6
2018-03-16T03:14:12.938Z,23.6
2018-03-16T03:15:03.293Z,23.6
2018-03-16T03:15:53.353Z,23.6
2018-03-16T03:16:42.672Z,23.6
2018-03-16T03:17:33.471Z,23.6
2018-03-16T03:18:23.800Z,23.6
2018-03-16T03:19:13.315Z,23.6
2018-03-16T03:20:04.231Z,23.6
2018-03-16T03:20:53.714Z,23.6
2018-03-16T03:21:44.087Z,23.6
2018-03-16T03:22:33.553Z,23.6
2018-03-16T03:23:23.347Z,23.6
2018-03-16T03:24:13.657Z,23.5
2018-03-16T03:25:03.741Z,23.4
2018-03-16T03:25:54.426Z,23.4
2018-03-16T03:26:44.725Z,23.4
2018-03-16T03:27:34.548Z,23.5
2018-03-16T03:28:24.266Z,23.5
2018-03-16T03:29:14.609Z,23.5
2018-03-16T03:30:03.191Z,23.5
2018-03-16T03:30:53.355Z,23.6
2018-03-16T03:31:44.161Z,23.6
2018-03-16T03:32:33.459Z,23.6
2018-03-16T03:33:24.577Z,23.6
2018-03-16T03:34:15.049Z,23.6
2018-03-16T03:35:04.478Z,23.6
2018-03-16T03:35:54.217Z,23.6
2018-03-16T03:36:45.151Z,23.6
2018-03-16T03:37:34.949Z,23.6
2018-03-16T03:38:24.985Z,23.6
2018-03-16T03:39:15.038Z,23.6
2018-03-16T03:40:04.807Z,23.6
2018-03-16T03:40:54.854Z,23.6
2018-03-16T03:41:45.155Z,23.6
2018-03-16T03:42:34.662Z,23.6
2018-03-16T03:43:25.620Z,23.6
2018-03-16T03:44:15.939Z,23.5
2018-03-16T03:45:05.747Z,23.5
2018-03-16T03:45:56.060Z,23.6
2018-03-16T03:46:45.546Z,23.5
2018-03-16T03:47:35.879Z,23.5
2018-03-16T03:48:26.252Z,23.5
2018-03-16T03:49:15.503Z,23.4
2018-03-16T03:50:05.766Z,23.5
2018-03-16T03:50:55.878Z,23.5
2018-03-16T03:51:45.071Z,23.6
2018-03-16T03:52:35.408Z,23.6
2018-03-16T03:53:26.006Z,23.6
2018-03-16T03:54:16.724Z,23.6
2018-03-16T03:55:06.449Z,23.6
2018-03-16T03:55:56.752Z,23.6
2018-03-16T03:56:46.410Z,23.6
2018-03-16T03:57:36.373Z,23.6
2018-03-16T03:58:26.663Z,23.6
2018-03-16T03:59:16.748Z,23.6
2018-03-16T04:00:06.565Z,23.6
2018-03-16T04:00:55.766Z,23.7
2018-03-16T04:01:45.578Z,23.7
2018-03-16T04:02:36.158Z,23.7
2018-03-16T04:03:25.166Z,23.7
2018-03-16T04:04:15.680Z,23.6
2018-03-16T04:05:05.390Z,23.6
2018-03-16T04:05:57.017Z,23.6
2018-03-16T04:06:46.129Z,23.6
2018-03-16T04:07:35.927Z,23.6
2018-03-16T04:08:27.209Z,23.6
2018-03-16T04:09:16.328Z,23.5
2018-03-16T04:10:07.788Z,23.6
2018-03-16T04:10:56.974Z,23.5
2018-03-16T04:11:47.901Z,23.5
2018-03-16T04:12:37.453Z,23.5
2018-03-16T04:13:27.199Z,23.6
2018-03-16T04:14:17.687Z,23.6
2018-03-16T04:15:07.612Z,23.6
2018-03-16T04:15:57.710Z,23.6
2018-03-16T04:16:47.977Z,23.6
2018-03-16T04:17:37.803Z,23.6
2018-03-16T04:18:26.999Z,23.5
2018-03-16T04:19:18.214Z,23.5
2018-03-16T04:20:07.214Z,23.6
2018-03-16T04:20:56.590Z,23.6
2018-03-16T04:21:47.139Z,23.6
2018-03-16T04:22:37.960Z,23.7
2018-03-16T04:23:26.674Z,23.6
2018-03-16T04:24:17.815Z,23.6
2018-03-16T04:25:22.354Z,23.6
2018-03-16T04:25:56.805Z,23.6
2018-03-16T04:26:47.397Z,23.6
2018-03-16T04:27:37.811Z,23.6
2018-03-16T04:28:27.874Z,23.6
2018-03-16T04:29:17.817Z,23.6
2018-03-16T04:30:08.509Z,23.5
2018-03-16T04:30:58.351Z,23.6
2018-03-16T04:31:47.261Z,23.6
2018-03-16T04:32:38.308Z,23.6
2018-03-16T04:33:28.478Z,23.5
2018-03-16T04:34:15.512Z,23.6
2018-03-16T04:35:08.598Z,23.5
2018-03-16T04:35:58.562Z,23.6
2018-03-16T04:36:48.211Z,23.6
2018-03-16T04:37:38.177Z,23.6
2018-03-16T04:38:28.135Z,23.5
2018-03-16T04:39:17.702Z,23.5
2018-03-16T04:40:08.668Z,23.6
2018-03-16T04:40:57.818Z,23.5
2018-03-16T04:41:48.984Z,23.5
2018-03-16T04:42:38.267Z,23.5
2018-03-16T04:43:28.950Z,23.5
2018-03-16T04:44:18.564Z,23.6
2018-03-16T04:45:09.497Z,23.6
2018-03-16T04:45:59.259Z,23.6
2018-03-16T04:46:49.003Z,23.6
2018-03-16T04:47:38.924Z,23.5
2018-03-16T04:48:28.460Z,23.5
2018-03-16T04:49:18.929Z,23.5
2018-03-16T04:50:08.861Z,23.4
2018-03-16T04:50:59.921Z,23.5
2018-03-16T04:51:49.530Z,23.4
2018-03-16T04:52:39.266Z,23.4
2018-03-16T04:53:28.970Z,23.5
2018-03-16T04:54:19.071Z,23.4
2018-03-16T04:55:09.739Z,23.4
2018-03-16T04:55:59.937Z,23.4
2018-03-16T04:56:48.473Z,23.4
2018-03-16T04:57:40.096Z,23.3
2018-03-16T04:58:29.648Z,23.4
2018-03-16T04:59:18.538Z,23.4
2018-03-16T05:00:09.088Z,23.4
2018-03-16T05:01:00.134Z,23.4
2018-03-16T05:01:49.508Z,23.4
2018-03-16T05:02:39.668Z,23.4
2018-03-16T05:03:30.383Z,23.4
2018-03-16T05:04:20.398Z,23.4
2018-03-16T05:05:10.631Z,23.4
2018-03-16T05:06:00.633Z,23.4
2018-03-16T05:06:50.228Z,23.4
2018-03-16T05:07:40.696Z,23.4
2018-03-16T05:08:30.393Z,23.4
2018-03-16T05:09:20.549Z,23.4
2018-03-16T05:10:10.690Z,23.5
2018-03-16T05:11:00.933Z,23.4
2018-03-16T05:11:50.797Z,23.5
2018-03-16T05:12:40.186Z,23.4
2018-03-16T05:13:31.621Z,23.4
2018-03-16T05:14:21.159Z,23.4
2018-03-16T05:15:10.575Z,23.4
2018-03-16T05:16:00.598Z,23.3
2018-03-16T05:16:52.300Z,23.1
2018-03-16T05:17:41.505Z,23.1
2018-03-16T05:18:31.274Z,22.9
2018-03-16T05:19:21.159Z,22.9
2018-03-16T05:20:11.577Z,22.8
2018-03-16T05:21:01.419Z,22.7
2018-03-16T05:21:51.415Z,22.6
2018-03-16T05:22:41.758Z,22.6
2018-03-16T05:23:31.560Z,22.6
2018-03-16T05:24:21.969Z,22.6
2018-03-16T05:25:10.777Z,22.6
2018-03-16T05:26:01.930Z,22.5
2018-03-16T05:26:52.264Z,22.5
2018-03-16T05:27:43.151Z,22.5
2018-03-16T05:28:32.299Z,22.4
2018-03-16T05:29:22.501Z,22.4
2018-03-16T05:30:11.921Z,22.4
2018-03-16T05:31:02.649Z,22.4
2018-03-16T05:31:51.683Z,22.4
2018-03-16T05:32:42.289Z,22.4
2018-03-16T05:33:31.960Z,22.4
2018-03-16T05:34:22.733Z,22.4
2018-03-16T05:35:11.993Z,22.4
2018-03-16T05:36:01.079Z,22.4
2018-03-16T05:36:52.478Z,22.4
2018-03-16T05:37:42.617Z,22.3
2018-03-16T05:38:32.219Z,22.3
2018-03-16T05:39:22.280Z,22.3
2018-03-16T05:40:13.167Z,22.3
2018-03-16T05:41:02.700Z,22.3
2018-03-16T05:41:53.066Z,22.3
2018-03-16T05:42:43.665Z,22.3
2018-03-16T05:43:34.162Z,22.2
2018-03-16T05:44:24.485Z,22.3
2018-03-16T05:45:14.048Z,22.3
2018-03-16T05:46:04.662Z,22.3
2018-03-16T05:46:54.137Z,22.3
2018-03-16T05:47:44.737Z,22.4
2018-03-16T05:48:34.297Z,22.4
2018-03-16T05:49:24.605Z,22.5
2018-03-16T05:50:14.390Z,22.5
2018-03-16T05:51:04.990Z,22.5
2018-03-16T05:51:54.765Z,22.5
2018-03-16T05:52:44.572Z,22.6
2018-03-16T05:53:34.645Z,22.6
2018-03-16T05:54:24.687Z,22.6
2018-03-16T05:55:14.791Z,22.5
2018-03-16T05:56:05.344Z,22.5
2018-03-16T05:56:54.012Z,22.5
2018-03-16T05:57:44.612Z,22.5
2018-03-16T05:58:34.414Z,22.5
2018-03-16T05:59:24.547Z,22.5
2018-03-16T06:00:13.579Z,22.6
2018-03-16T06:01:04.299Z,22.6
2018-03-16T06:01:53.946Z,22.7
2018-03-16T06:02:44.494Z,22.8
2018-03-16T06:03:34.566Z,22.8
2018-03-16T06:04:24.019Z,22.8
2018-03-16T06:05:14.784Z,22.8
2018-03-16T06:06:04.547Z,22.9
2018-03-16T06:06:54.481Z,22.9
2018-03-16T06:07:45.074Z,22.9
2018-03-16T06:08:35.136Z,22.9
2018-03-16T06:09:25.525Z,23
2018-03-16T06:10:14.949Z,23
2018-03-16T06:11:05.224Z,23
2018-03-16T06:11:55.158Z,23
2018-03-16T06:12:45.168Z,23
2018-03-16T06:13:36.155Z,22.9
2018-03-16T06:14:25.672Z,22.9
2018-03-16T06:15:15.411Z,22.9
2018-03-16T06:16:04.971Z,22.9
2018-03-16T06:16:56.069Z,22.9
2018-03-16T06:17:45.745Z,22.9
2018-03-16T06:18:35.360Z,23
2018-03-16T06:19:25.233Z,23
2018-03-16T06:20:15.856Z,23
2018-03-16T06:21:05.268Z,23
2018-03-16T06:21:55.087Z,23
2018-03-16T06:22:45.335Z,23.1
2018-03-16T06:23:35.923Z,23.1
2018-03-16T06:24:26.665Z,23.1
2018-03-16T06:25:15.813Z,23.1
2018-03-16T06:26:06.560Z,23.1
2018-03-16T06:26:56.815Z,23.1
2018-03-16T06:27:46.578Z,23.2
2018-03-16T06:28:36.814Z,23.2
2018-03-16T06:29:26.600Z,23.2
2018-03-16T06:30:16.665Z,23.2
2018-03-16T06:31:05.952Z,23.3
2018-03-16T06:31:56.120Z,23.3
2018-03-16T06:32:46.460Z,23.3
2018-03-16T06:33:37.607Z,23.3
2018-03-16T06:34:27.357Z,23.3
2018-03-16T06:35:16.032Z,23.3
2018-03-16T06:36:07.632Z,23.3
2018-03-16T06:36:57.135Z,23.3
2018-03-16T06:37:47.235Z,23.3
2018-03-16T06:38:37.353Z,23.3
2018-03-16T06:39:26.719Z,23.3
2018-03-16T06:40:16.409Z,23.3
2018-03-16T06:41:07.769Z,23.3
2018-03-16T06:41:57.389Z,23.2
2018-03-16T06:42:46.951Z,23.2
2018-03-16T06:43:38.009Z,23.1
2018-03-16T06:44:27.343Z,23.1
2018-03-16T06:45:17.551Z,23.2
2018-03-16T06:46:08.082Z,23.1
2018-03-16T06:46:57.866Z,23.1
2018-03-16T06:47:48.751Z,23.2
2018-03-16T06:48:37.964Z,23.1
2018-03-16T06:49:28.875Z,23.1
2018-03-16T06:50:18.914Z,23.1
2018-03-16T06:51:08.961Z,23.1
2018-03-16T06:51:57.951Z,23.1
2018-03-16T06:52:48.143Z,23.1
2018-03-16T06:53:38.129Z,23
2018-03-16T06:54:28.396Z,23
2018-03-16T06:55:18.451Z,22.9
2018-03-16T06:56:08.550Z,22.9
2018-03-16T06:56:57.956Z,22.9
2018-03-16T06:57:47.933Z,22.9
2018-03-16T06:58:37.985Z,22.9
2018-03-16T06:59:28.381Z,22.9
2018-03-16T07:00:17.635Z,22.9
2018-03-16T07:01:08.728Z,23
2018-03-16T07:01:58.413Z,23
2018-03-16T07:02:48.160Z,23
2018-03-16T07:03:38.917Z,23
2018-03-16T07:04:29.090Z,22.9
2018-03-16T07:05:19.018Z,22.9
2018-03-16T07:06:09.776Z,22.9
2018-03-16T07:07:00.128Z,22.9
2018-03-16T07:07:48.564Z,23
2018-03-16T07:08:39.415Z,22.9
2018-03-16T07:09:29.627Z,22.9
2018-03-16T07:10:18.954Z,22.9
2018-03-16T07:11:09.439Z,22.8
2018-03-16T07:11:59.284Z,22.8
2018-03-16T07:12:49.649Z,22.8
2018-03-16T07:13:39.509Z,22.8
2018-03-16T07:14:27.176Z,22.9
2018-03-16T07:15:18.595Z,22.9
2018-03-16T07:16:09.030Z,22.9
2018-03-16T07:16:59.370Z,22.9
2018-03-16T07:17:49.352Z,22.9
2018-03-16T07:18:40.059Z,22.9
2018-03-16T07:19:30.742Z,22.9
2018-03-16T07:20:19.169Z,23
2018-03-16T07:21:10.580Z,23
2018-03-16T07:21:59.839Z,23
2018-03-16T07:22:49.931Z,23.1
2018-03-16T07:23:40.167Z,23.1
2018-03-16T07:24:30.487Z,23.1
2018-03-16T07:25:20.379Z,23.1
2018-03-16T07:26:10.514Z,23.1
2018-03-16T07:27:00.122Z,23.1
2018-03-16T07:27:50.108Z,23.2
2018-03-16T07:28:40.737Z,23.2
2018-03-16T07:29:30.841Z,23.2
2018-03-16T07:30:21.004Z,23.3
2018-03-16T07:31:10.559Z,23.3
2018-03-16T07:32:00.530Z,23.3
2018-03-16T07:32:51.789Z,23.3
2018-03-16T07:33:40.678Z,23.4
2018-03-16T07:34:30.931Z,23.4
2018-03-16T07:35:20.404Z,23.3
2018-03-16T07:36:11.322Z,23.3
2018-03-16T07:37:00.589Z,23.3
2018-03-16T07:37:50.953Z,23.3
2018-03-16T07:38:41.051Z,23.3
2018-03-16T07:39:32.380Z,23.3
2018-03-16T07:40:22.166Z,23.2
2018-03-16T07:41:13.113Z,23.2
2018-03-16T07:42:01.849Z,23.2
2018-03-16T07:42:53.291Z,23.1
2018-03-16T07:43:42.119Z,23.1
2018-03-16T07:44:31.893Z,23.1
2018-03-16T07:45:22.516Z,23.2
2018-03-16T07:46:12.851Z,23.2
2018-03-16T07:47:03.268Z,23.2
2018-03-16T07:47:51.851Z,23.2
2018-03-16T07:48:42.070Z,23.2
2018-03-16T07:49:31.906Z,23.2
2018-03-16T07:50:22.154Z,23.2
2018-03-16T07:51:11.606Z,23.2
2018-03-16T07:52:02.292Z,23.1
2018-03-16T07:52:51.177Z,23.2
2018-03-16T07:53:41.708Z,23.1
2018-03-16T07:54:32.087Z,23.2
2018-03-16T07:55:22.750Z,23.2
2018-03-16T07:56:13.345Z,23.2
2018-03-16T07:57:03.685Z,23.2
2018-03-16T07:57:52.965Z,23.2
2018-03-16T07:58:44.048Z,23.1
2018-03-16T07:59:33.555Z,23.2
2018-03-16T08:00:23.311Z,23.3
2018-03-16T08:01:14.337Z,23.3
2018-03-16T08:02:04.057Z,23.3
2018-03-16T08:02:53.477Z,23.3
2018-03-16T08:03:44.175Z,23.3
2018-03-16T08:04:34.167Z,23.3
2018-03-16T08:05:23.682Z,23.2
2018-03-16T08:06:13.727Z,23.1
2018-03-16T08:07:04.682Z,23.1
2018-03-16T08:07:54.672Z,23.1
2018-03-16T08:08:43.784Z,23
2018-03-16T08:09:34.578Z,23
2018-03-16T08:10:24.583Z,22.9
2018-03-16T08:11:14.641Z,22.9
2018-03-16T08:12:03.887Z,22.9
2018-03-16T08:12:54.467Z,23
2018-03-16T08:13:45.126Z,23
2018-03-16T08:14:34.889Z,23
2018-03-16T08:15:25.834Z,23
2018-03-16T08:16:15.309Z,23.1
2018-03-16T08:17:04.786Z,23.1
2018-03-16T08:17:55.414Z,23.1
2018-03-16T08:18:44.979Z,23.1
2018-03-16T08:19:35.261Z,23.1
2018-03-16T08:20:25.036Z,23.1
2018-03-16T08:21:15.376Z,23.1
2018-03-16T08:22:04.840Z,23.1
2018-03-16T08:22:55.741Z,23.2
2018-03-16T08:23:45.583Z,23.3
2018-03-16T08:24:35.620Z,23.3
2018-03-16T08:25:25.953Z,23.3
2018-03-16T08:26:15.704Z,23.3
2018-03-16T08:27:05.506Z,23.3
2018-03-16T08:27:55.546Z,23.3
2018-03-16T08:28:45.903Z,23.3
2018-03-16T08:29:35.721Z,23.3
2018-03-16T08:30:25.775Z,23.3
2018-03-16T08:31:16.468Z,23.3
2018-03-16T08:32:05.570Z,23.3
2018-03-16T08:32:55.913Z,23.3
2018-03-16T08:33:46.013Z,23.3
2018-03-16T08:34:36.620Z,23.2
2018-03-16T08:35:25.236Z,23.1
2018-03-16T08:36:16.236Z,23.1
2018-03-16T08:37:06.487Z,23.1
2018-03-16T08:37:56.062Z,23.1
2018-03-16T08:38:46.612Z,23.1
2018-03-16T08:39:36.177Z,23.1
2018-03-16T08:40:25.873Z,23.1
2018-03-16T08:41:16.032Z,23.1
2018-03-16T08:42:06.662Z,23.1
2018-03-16T08:42:56.100Z,23.1
2018-03-16T08:43:45.268Z,23.1
2018-03-16T08:44:35.497Z,23.1
2018-03-16T08:45:26.157Z,23.1
2018-03-16T08:46:16.468Z,23.1
2018-03-16T08:47:05.808Z,23.1
2018-03-16T08:47:55.269Z,23.2
2018-03-16T08:48:46.085Z,23.2
2018-03-16T08:49:37.141Z,23.2
2018-03-16T08:50:25.829Z,23.2
2018-03-16T08:51:15.929Z,23.3
2018-03-16T08:52:05.725Z,23.3
2018-03-16T08:52:57.199Z,23.3
2018-03-16T08:53:46.386Z,23.3
2018-03-16T08:54:36.854Z,23.3
2018-03-16T08:55:26.967Z,23.3
2018-03-16T08:56:17.307Z,23.3
2018-03-16T08:57:07.678Z,23.3
2018-03-16T08:57:55.683Z,23.4
2018-03-16T08:58:46.454Z,23.3
2018-03-16T08:59:37.246Z,23.3
2018-03-16T09:00:27.440Z,23.3
2018-03-16T09:01:17.624Z,23.3
2018-03-16T09:02:06.659Z,23.3
2018-03-16T09:02:56.501Z,23.3
2018-03-16T09:03:48.041Z,23.3
2018-03-16T09:04:37.141Z,23.3
2018-03-16T09:05:26.834Z,23.2
2018-03-16T09:06:17.093Z,23.2
2018-03-16T09:07:07.088Z,23.1
2018-03-16T09:07:56.878Z,23.1
2018-03-16T09:08:48.546Z,23.1
2018-03-16T09:09:38.596Z,23.1
2018-03-16T09:10:27.933Z,23.2
2018-03-16T09:11:17.825Z,23.2
2018-03-16T09:12:07.720Z,23.1
2018-03-16T09:12:58.541Z,23.1
2018-03-16T09:13:48.382Z,23.1
2018-03-16T09:14:38.839Z,23.1
2018-03-16T09:15:27.570Z,23.1
2018-03-16T09:16:17.701Z,23.1
2018-03-16T09:17:08.825Z,23.2
2018-03-16T09:17:58.748Z,23.3
2018-03-16T09:18:48.126Z,23.3
2018-03-16T09:19:38.238Z,23.2
2018-03-16T09:20:28.069Z,23.2
2018-03-16T09:21:18.542Z,23.2
2018-03-16T09:22:09.172Z,23.3
2018-03-16T09:22:58.455Z,23.3
2018-03-16T09:23:48.578Z,23.3
2018-03-16T09:24:38.726Z,23.3
2018-03-16T09:25:28.712Z,23.3
2018-03-16T09:26:18.507Z,23.3
2018-03-16T09:27:08.837Z,23.3
2018-03-16T09:27:58.888Z,23.3
2018-03-16T09:28:49.192Z,23.3
2018-03-16T09:29:39.584Z,23.3
2018-03-16T09:30:28.927Z,23.2
2018-03-16T09:31:19.557Z,23.2
2018-03-16T09:32:09.985Z,23.2
2018-03-16T09:32:59.334Z,23.1
2018-03-16T09:33:49.921Z,23.1
2018-03-16T09:34:39.666Z,23.1
2018-03-16T09:35:30.150Z,23.1
2018-03-16T09:36:19.765Z,23.1
2018-03-16T09:37:10.167Z,23.1
2018-03-16T09:37:58.530Z,23.1
2018-03-16T09:38:50.135Z,23.1
2018-03-16T09:39:40.312Z,23.1
2018-03-16T09:40:29.884Z,23.1
2018-03-16T09:41:20.039Z,23.1
2018-03-16T09:42:09.207Z,23.1
2018-03-16T09:42:59.771Z,23.1
2018-03-16T09:43:49.394Z,23.2
2018-03-16T09:44:40.376Z,23.2
2018-03-16T09:45:29.966Z,23.2
2018-03-16T09:46:19.731Z,23.2
2018-03-16T09:47:09.454Z,23.2
2018-03-16T09:48:00.673Z,23.2
2018-03-16T09:48:50.279Z,23.2
2018-03-16T09:49:40.886Z,23.2
2018-03-16T09:50:30.666Z,23.2
2018-03-16T09:51:20.602Z,23.2
2018-03-16T09:52:09.823Z,23.2
2018-03-16T09:53:01.460Z,23.3
2018-03-16T09:53:50.454Z,23.3
2018-03-16T09:54:40.371Z,23.3
2018-03-16T09:55:30.861Z,23.3
2018-03-16T09:56:20.802Z,23.3
2018-03-16T09:57:11.266Z,23.2
2018-03-16T09:58:00.636Z,23.2
2018-03-16T09:58:50.598Z,23.2
2018-03-16T09:59:40.634Z,23.2
2018-03-16T10:00:30.205Z,23.1
2018-03-16T10:01:20.274Z,23.1
2018-03-16T10:02:11.498Z,23.1
2018-03-16T10:03:00.686Z,23.1
2018-03-16T10:03:51.022Z,23.1
2018-03-16T10:04:41.032Z,23.1
2018-03-16T10:05:31.434Z,23.2
2018-03-16T10:06:21.242Z,23.2
2018-03-16T10:07:10.667Z,23.2
2018-03-16T10:08:01.542Z,23.2
2018-03-16T10:08:50.399Z,23.2
2018-03-16T10:09:41.348Z,23.2
2018-03-16T10:10:31.420Z,23.2
2018-03-16T10:11:22.796Z,23.2
2018-03-16T10:12:13.227Z,23.3
2018-03-16T10:13:03.366Z,23.3
2018-03-16T10:13:52.839Z,23.3
2018-03-16T10:14:42.384Z,23.3
2018-03-16T10:15:33.487Z,23.3
2018-03-16T10:16:23.813Z,23.3
2018-03-16T10:17:13.381Z,23.3
2018-03-16T10:18:02.336Z,23.3
2018-03-16T10:18:51.592Z,23.3
2018-03-16T10:19:42.049Z,23.3
2018-03-16T10:20:32.861Z,23.2
2018-03-16T10:21:22.089Z,23.3
2018-03-16T10:22:12.585Z,23.3
2018-03-16T10:23:03.362Z,23.3
2018-03-16T10:23:52.521Z,23.3
2018-03-16T10:24:43.731Z,23.3
2018-03-16T10:25:32.782Z,23.3
2018-03-16T10:26:22.230Z,23.3
2018-03-16T10:27:12.091Z,23.2
2018-03-16T10:28:03.276Z,23.2
2018-03-16T10:28:53.481Z,23.1
2018-03-16T10:29:43.668Z,23.1
2018-03-16T10:30:32.998Z,23.1
2018-03-16T10:31:23.091Z,23.1
2018-03-16T10:32:13.544Z,23.1
2018-03-16T10:33:03.348Z,23.1
2018-03-16T10:33:53.498Z,23.1
2018-03-16T10:34:44.383Z,23.1
2018-03-16T10:35:33.383Z,23.2
2018-03-16T10:36:24.028Z,23.1
2018-03-16T10:37:13.726Z,23.1
2018-03-16T10:38:03.962Z,23.2
2018-03-16T10:38:52.870Z,23.2
2018-03-16T10:39:44.175Z,23.3
2018-03-16T10:40:34.235Z,23.3
2018-03-16T10:41:23.503Z,23.3
2018-03-16T10:42:14.224Z,23.3
2018-03-16T10:43:04.428Z,23.3
2018-03-16T10:43:55.262Z,23.3
2018-03-16T10:44:44.602Z,23.3
2018-03-16T10:45:33.970Z,23.4
2018-03-16T10:46:24.348Z,23.3
2018-03-16T10:47:15.213Z,23.3
2018-03-16T10:48:05.168Z,23.3
2018-03-16T10:48:53.924Z,23.4
2018-03-16T10:49:44.211Z,23.4
2018-03-16T10:50:34.624Z,23.4
2018-03-16T10:51:24.455Z,23.4
2018-03-16T10:52:14.980Z,23.3
2018-03-16T10:53:04.244Z,23.3
2018-03-16T10:53:55.167Z,23.3
2018-03-16T10:54:44.665Z,23.3
2018-03-16T10:55:35.487Z,23.3
2018-03-16T10:56:25.643Z,23.3
2018-03-16T10:57:15.687Z,23.3
2018-03-16T10:58:05.280Z,23.3
2018-03-16T10:58:55.622Z,23.3
2018-03-16T10:59:44.924Z,23.3
2018-03-16T11:00:35.748Z,23.3
2018-03-16T11:01:26.368Z,23.3
2018-03-16T11:02:16.242Z,23.3
2018-03-16T11:03:05.684Z,23.2
2018-03-16T11:03:55.029Z,23.3
2018-03-16T11:04:45.310Z,23.3
2018-03-16T11:05:36.324Z,23.3
2018-03-16T11:06:26.651Z,23.3
2018-03-16T11:07:15.545Z,23.3
2018-03-16T11:08:06.011Z,23.3